sensor_id;sensor_type;location;lat;lon;timestamp;temperature;humidity
35299;DHT22;21415;48.054;16.646;2022-11-23T00:00:33;10.80;56.40
35299;DHT22;21415;48.054;16.646;2022-11-23T00:02:59;10.80;56.50
35299;DHT22;21415;48.054;16.646;2022-11-23T00:05:27;10.80;56.60
35299;DHT22;21415;48.054;16.646;2022-11-23T00:07:53;10.80;56.80
35299;DHT22;21415;48.054;16.646;2022-11-23T00:10:19;10.70;56.80
35299;DHT22;21415;48.054;16.646;2022-11-23T00:12:45;10.70;56.80
35299;DHT22;21415;48.054;16.646;2022-11-23T00:15:14;10.80;56.90
35299;DHT22;21415;48.054;16.646;2022-11-23T00:17:40;10.80;57.00
35299;DHT22;21415;48.054;16.646;2022-11-23T00:20:06;10.80;56.90
35299;DHT22;21415;48.054;16.646;2022-11-23T00:22:32;10.80;56.90
35299;DHT22;21415;48.054;16.646;2022-11-23T00:24:58;10.80;57.20
35299;DHT22;21415;48.054;16.646;2022-11-23T00:27:24;10.80;56.80
35299;DHT22;21415;48.054;16.646;2022-11-23T00:29:50;10.70;56.80
35299;DHT22;21415;48.054;16.646;2022-11-23T00:32:16;10.70;57.20
35299;DHT22;21415;48.054;16.646;2022-11-23T00:34:42;10.70;56.70
35299;DHT22;21415;48.054;16.646;2022-11-23T00:37:07;10.70;56.80
35299;DHT22;21415;48.054;16.646;2022-11-23T00:39:33;10.70;56.90
35299;DHT22;21415;48.054;16.646;2022-11-23T00:41:59;10.70;57.10
35299;DHT22;21415;48.054;16.646;2022-11-23T00:44:25;10.60;57.10
35299;DHT22;21415;48.054;16.646;2022-11-23T00:46:50;10.60;57.10
35299;DHT22;21415;48.054;16.646;2022-11-23T00:49:16;10.60;57.10
35299;DHT22;21415;48.054;16.646;2022-11-23T00:51:42;10.60;57.30
35299;DHT22;21415;48.054;16.646;2022-11-23T00:54:08;10.60;57.20
35299;DHT22;21415;48.054;16.646;2022-11-23T00:56:35;10.60;57.40
35299;DHT22;21415;48.054;16.646;2022-11-23T00:59:02;10.50;57.30
35299;DHT22;21415;48.054;16.646;2022-11-23T01:01:31;10.50;57.50
35299;DHT22;21415;48.054;16.646;2022-11-23T01:04:00;10.50;57.60
35299;DHT22;21415;48.054;16.646;2022-11-23T01:06:33;10.50;57.70
35299;DHT22;21415;48.054;16.646;2022-11-23T01:09:03;10.40;57.80
35299;DHT22;21415;48.054;16.646;2022-11-23T01:11:30;10.40;57.70
35299;DHT22;21415;48.054;16.646;2022-11-23T01:13:57;10.40;57.70
35299;DHT22;21415;48.054;16.646;2022-11-23T01:16:33;10.40;57.70
35299;DHT22;21415;48.054;16.646;2022-11-23T01:19:02;10.40;58.00
35299;DHT22;21415;48.054;16.646;2022-11-23T01:21:28;10.40;57.90
35299;DHT22;21415;48.054;16.646;2022-11-23T01:23:55;10.30;57.90
35299;DHT22;21415;48.054;16.646;2022-11-23T01:26:21;10.30;57.90
35299;DHT22;21415;48.054;16.646;2022-11-23T01:28:48;10.30;58.00
35299;DHT22;21415;48.054;16.646;2022-11-23T01:31:20;10.30;58.10
35299;DHT22;21415;48.054;16.646;2022-11-23T01:33:47;10.30;58.60
35299;DHT22;21415;48.054;16.646;2022-11-23T01:36:18;10.30;58.00
35299;DHT22;21415;48.054;16.646;2022-11-23T01:38:45;10.30;58.30
35299;DHT22;21415;48.054;16.646;2022-11-23T01:41:16;10.30;58.10
35299;DHT22;21415;48.054;16.646;2022-11-23T01:43:42;10.30;58.20
35299;DHT22;21415;48.054;16.646;2022-11-23T01:46:08;10.30;58.10
35299;DHT22;21415;48.054;16.646;2022-11-23T01:48:42;10.20;58.10
35299;DHT22;21415;48.054;16.646;2022-11-23T01:51:36;10.20;58.40
35299;DHT22;21415;48.054;16.646;2022-11-23T01:54:02;10.20;58.60
35299;DHT22;21415;48.054;16.646;2022-11-23T01:56:34;10.30;58.40
35299;DHT22;21415;48.054;16.646;2022-11-23T01:59:04;10.30;58.60
35299;DHT22;21415;48.054;16.646;2022-11-23T02:01:32;10.30;58.60
35299;DHT22;21415;48.054;16.646;2022-11-23T02:03:59;10.30;58.40
35299;DHT22;21415;48.054;16.646;2022-11-23T02:06:26;10.40;58.50
35299;DHT22;21415;48.054;16.646;2022-11-23T02:08:52;10.40;58.40
35299;DHT22;21415;48.054;16.646;2022-11-23T02:11:19;10.60;58.40
35299;DHT22;21415;48.054;16.646;2022-11-23T02:13:47;10.50;58.20
35299;DHT22;21415;48.054;16.646;2022-11-23T02:16:15;10.50;58.20
35299;DHT22;21415;48.054;16.646;2022-11-23T02:18:46;10.50;58.20
35299;DHT22;21415;48.054;16.646;2022-11-23T02:21:13;10.50;58.20
35299;DHT22;21415;48.054;16.646;2022-11-23T02:26:49;10.60;58.40
35299;DHT22;21415;48.054;16.646;2022-11-23T02:29:19;10.60;58.10
35299;DHT22;21415;48.054;16.646;2022-11-23T02:31:46;10.60;58.30
35299;DHT22;21415;48.054;16.646;2022-11-23T02:34:13;10.60;58.20
35299;DHT22;21415;48.054;16.646;2022-11-23T02:36:51;10.60;58.10
35299;DHT22;21415;48.054;16.646;2022-11-23T02:39:26;10.60;58.30
35299;DHT22;21415;48.054;16.646;2022-11-23T02:41:54;10.60;58.20
35299;DHT22;21415;48.054;16.646;2022-11-23T02:47:12;10.60;58.20
35299;DHT22;21415;48.054;16.646;2022-11-23T02:49:41;10.60;57.90
35299;DHT22;21415;48.054;16.646;2022-11-23T02:52:10;10.70;58.00
35299;DHT22;21415;48.054;16.646;2022-11-23T02:54:35;10.70;57.90
35299;DHT22;21415;48.054;16.646;2022-11-23T02:57:02;10.70;58.00
35299;DHT22;21415;48.054;16.646;2022-11-23T02:59:28;10.70;58.00
35299;DHT22;21415;48.054;16.646;2022-11-23T03:02:02;10.70;57.90
35299;DHT22;21415;48.054;16.646;2022-11-23T03:04:29;10.70;58.00
35299;DHT22;21415;48.054;16.646;2022-11-23T03:06:55;10.60;57.90
35299;DHT22;21415;48.054;16.646;2022-11-23T03:09:22;10.70;58.00
35299;DHT22;21415;48.054;16.646;2022-11-23T03:11:48;10.60;57.90
35299;DHT22;21415;48.054;16.646;2022-11-23T03:14:14;10.60;57.80
35299;DHT22;21415;48.054;16.646;2022-11-23T03:16:47;10.70;57.90
35299;DHT22;21415;48.054;16.646;2022-11-23T03:19:15;10.60;57.70
35299;DHT22;21415;48.054;16.646;2022-11-23T03:21:41;10.60;57.80
35299;DHT22;21415;48.054;16.646;2022-11-23T03:24:07;10.70;57.90
35299;DHT22;21415;48.054;16.646;2022-11-23T03:26:34;10.60;58.00
35299;DHT22;21415;48.054;16.646;2022-11-23T03:29:08;10.60;58.00
35299;DHT22;21415;48.054;16.646;2022-11-23T03:31:33;10.60;58.10
35299;DHT22;21415;48.054;16.646;2022-11-23T03:33:59;10.60;58.10
35299;DHT22;21415;48.054;16.646;2022-11-23T03:36:27;10.60;58.00
35299;DHT22;21415;48.054;16.646;2022-11-23T03:38:52;10.60;58.00
35299;DHT22;21415;48.054;16.646;2022-11-23T03:41:36;10.60;58.00
35299;DHT22;21415;48.054;16.646;2022-11-23T03:44:03;10.60;58.00
35299;DHT22;21415;48.054;16.646;2022-11-23T03:46:29;10.60;57.90
35299;DHT22;21415;48.054;16.646;2022-11-23T03:48:55;10.70;57.90
35299;DHT22;21415;48.054;16.646;2022-11-23T03:51:21;10.60;57.90
35299;DHT22;21415;48.054;16.646;2022-11-23T03:53:47;10.60;57.90
35299;DHT22;21415;48.054;16.646;2022-11-23T03:56:13;10.60;58.00
35299;DHT22;21415;48.054;16.646;2022-11-23T03:58:43;10.60;58.00
35299;DHT22;21415;48.054;16.646;2022-11-23T04:01:12;10.60;58.10
35299;DHT22;21415;48.054;16.646;2022-11-23T04:03:38;10.60;58.10
35299;DHT22;21415;48.054;16.646;2022-11-23T04:06:29;10.60;58.10
35299;DHT22;21415;48.054;16.646;2022-11-23T04:09:14;10.60;58.10
35299;DHT22;21415;48.054;16.646;2022-11-23T04:12:07;10.60;58.00
35299;DHT22;21415;48.054;16.646;2022-11-23T04:14:35;10.50;58.00
35299;DHT22;21415;48.054;16.646;2022-11-23T04:17:01;10.70;58.00
35299;DHT22;21415;48.054;16.646;2022-11-23T04:19:29;10.50;58.00
35299;DHT22;21415;48.054;16.646;2022-11-23T04:21:55;10.50;58.10
35299;DHT22;21415;48.054;16.646;2022-11-23T04:24:21;10.50;58.20
35299;DHT22;21415;48.054;16.646;2022-11-23T04:26:47;10.40;58.20
35299;DHT22;21415;48.054;16.646;2022-11-23T04:29:13;10.40;58.20
35299;DHT22;21415;48.054;16.646;2022-11-23T04:31:44;10.40;58.20
35299;DHT22;21415;48.054;16.646;2022-11-23T04:34:13;10.40;58.20
35299;DHT22;21415;48.054;16.646;2022-11-23T04:36:39;10.40;58.30
35299;DHT22;21415;48.054;16.646;2022-11-23T04:39:07;10.30;58.20
35299;DHT22;21415;48.054;16.646;2022-11-23T04:41:41;10.30;58.30
35299;DHT22;21415;48.054;16.646;2022-11-23T04:44:07;10.30;58.30
35299;DHT22;21415;48.054;16.646;2022-11-23T04:46:33;10.30;58.40
35299;DHT22;21415;48.054;16.646;2022-11-23T04:49:05;10.30;58.90
35299;DHT22;21415;48.054;16.646;2022-11-23T04:51:30;10.30;58.40
35299;DHT22;21415;48.054;16.646;2022-11-23T04:53:56;10.40;58.50
35299;DHT22;21415;48.054;16.646;2022-11-23T04:56:24;10.30;58.50
35299;DHT22;21415;48.054;16.646;2022-11-23T04:58:50;10.30;58.70
35299;DHT22;21415;48.054;16.646;2022-11-23T05:01:16;10.30;58.80
35299;DHT22;21415;48.054;16.646;2022-11-23T05:04:01;10.30;58.80
35299;DHT22;21415;48.054;16.646;2022-11-23T05:06:27;10.30;58.80
35299;DHT22;21415;48.054;16.646;2022-11-23T05:08:53;10.30;58.80
35299;DHT22;21415;48.054;16.646;2022-11-23T05:11:31;10.30;58.80
35299;DHT22;21415;48.054;16.646;2022-11-23T05:13:58;10.30;58.80
35299;DHT22;21415;48.054;16.646;2022-11-23T05:16:24;10.30;59.40
35299;DHT22;21415;48.054;16.646;2022-11-23T05:18:50;10.30;58.80
35299;DHT22;21415;48.054;16.646;2022-11-23T05:21:16;10.30;58.80
35299;DHT22;21415;48.054;16.646;2022-11-23T05:23:42;10.20;58.80
35299;DHT22;21415;48.054;16.646;2022-11-23T05:26:08;10.30;58.90
35299;DHT22;21415;48.054;16.646;2022-11-23T05:28:34;10.30;58.90
35299;DHT22;21415;48.054;16.646;2022-11-23T05:31:00;10.30;58.90
35299;DHT22;21415;48.054;16.646;2022-11-23T05:33:25;10.30;58.90
35299;DHT22;21415;48.054;16.646;2022-11-23T05:35:52;10.40;59.00
35299;DHT22;21415;48.054;16.646;2022-11-23T05:38:25;10.30;58.90
35299;DHT22;21415;48.054;16.646;2022-11-23T05:40:51;10.40;59.00
35299;DHT22;21415;48.054;16.646;2022-11-23T05:43:17;10.40;58.90
35299;DHT22;21415;48.054;16.646;2022-11-23T05:45:43;10.40;58.90
35299;DHT22;21415;48.054;16.646;2022-11-23T05:48:09;10.40;58.90
35299;DHT22;21415;48.054;16.646;2022-11-23T05:50:53;10.40;58.90
35299;DHT22;21415;48.054;16.646;2022-11-23T05:53:30;10.60;58.90
35299;DHT22;21415;48.054;16.646;2022-11-23T05:56:05;10.40;58.80
35299;DHT22;21415;48.054;16.646;2022-11-23T05:58:36;10.40;58.80
35299;DHT22;21415;48.054;16.646;2022-11-23T06:01:02;10.40;58.80
35299;DHT22;21415;48.054;16.646;2022-11-23T06:03:32;10.40;58.70
35299;DHT22;21415;48.054;16.646;2022-11-23T06:05:58;10.40;58.70
35299;DHT22;21415;48.054;16.646;2022-11-23T06:08:30;10.40;58.70
35299;DHT22;21415;48.054;16.646;2022-11-23T06:11:00;10.40;58.70
35299;DHT22;21415;48.054;16.646;2022-11-23T06:13:26;10.40;58.80
35299;DHT22;21415;48.054;16.646;2022-11-23T06:15:52;10.50;58.70
35299;DHT22;21415;48.054;16.646;2022-11-23T06:18:23;10.40;58.70
35299;DHT22;21415;48.054;16.646;2022-11-23T06:20:49;10.50;58.80
35299;DHT22;21415;48.054;16.646;2022-11-23T06:23:14;10.50;58.80
35299;DHT22;21415;48.054;16.646;2022-11-23T06:25:40;10.40;58.80
35299;DHT22;21415;48.054;16.646;2022-11-23T06:28:14;10.50;58.80
35299;DHT22;21415;48.054;16.646;2022-11-23T06:30:43;10.60;58.80
35299;DHT22;21415;48.054;16.646;2022-11-23T06:33:11;10.50;58.80
35299;DHT22;21415;48.054;16.646;2022-11-23T06:35:51;10.50;58.80
35299;DHT22;21415;48.054;16.646;2022-11-23T06:38:17;10.50;59.00
35299;DHT22;21415;48.054;16.646;2022-11-23T06:40:42;10.50;58.80
35299;DHT22;21415;48.054;16.646;2022-11-23T06:43:08;10.60;58.80
35299;DHT22;21415;48.054;16.646;2022-11-23T06:45:39;10.60;58.80
35299;DHT22;21415;48.054;16.646;2022-11-23T06:48:08;10.50;58.70
35299;DHT22;21415;48.054;16.646;2022-11-23T06:50:39;10.60;58.70
35299;DHT22;21415;48.054;16.646;2022-11-23T06:53:05;10.60;58.70
35299;DHT22;21415;48.054;16.646;2022-11-23T06:55:39;10.60;58.70
35299;DHT22;21415;48.054;16.646;2022-11-23T06:58:05;10.60;58.60
35299;DHT22;21415;48.054;16.646;2022-11-23T07:00:32;10.70;58.60
35299;DHT22;21415;48.054;16.646;2022-11-23T07:03:00;10.70;58.60
35299;DHT22;21415;48.054;16.646;2022-11-23T07:05:28;10.70;58.50
35299;DHT22;21415;48.054;16.646;2022-11-23T07:07:54;10.70;58.50
35299;DHT22;21415;48.054;16.646;2022-11-23T07:10:24;10.70;58.50
35299;DHT22;21415;48.054;16.646;2022-11-23T07:12:54;10.70;58.40
35299;DHT22;21415;48.054;16.646;2022-11-23T07:15:22;10.70;58.50
35299;DHT22;21415;48.054;16.646;2022-11-23T07:17:49;10.70;58.50
35299;DHT22;21415;48.054;16.646;2022-11-23T07:20:17;10.70;58.50
35299;DHT22;21415;48.054;16.646;2022-11-23T07:22:44;10.80;58.60
35299;DHT22;21415;48.054;16.646;2022-11-23T07:25:09;10.80;58.60
35299;DHT22;21415;48.054;16.646;2022-11-23T07:27:36;10.80;58.60
35299;DHT22;21415;48.054;16.646;2022-11-23T07:30:03;10.80;58.80
35299;DHT22;21415;48.054;16.646;2022-11-23T07:32:29;10.90;58.50
35299;DHT22;21415;48.054;16.646;2022-11-23T07:34:55;10.90;58.50
35299;DHT22;21415;48.054;16.646;2022-11-23T07:37:21;11.00;58.50
35299;DHT22;21415;48.054;16.646;2022-11-23T07:39:48;11.00;58.40
35299;DHT22;21415;48.054;16.646;2022-11-23T07:42:13;11.00;58.30
35299;DHT22;21415;48.054;16.646;2022-11-23T07:44:39;11.00;58.20
35299;DHT22;21415;48.054;16.646;2022-11-23T07:47:08;11.10;58.10
35299;DHT22;21415;48.054;16.646;2022-11-23T07:49:33;11.10;58.10
35299;DHT22;21415;48.054;16.646;2022-11-23T07:51:59;11.20;58.00
35299;DHT22;21415;48.054;16.646;2022-11-23T07:54:25;11.30;58.00
35299;DHT22;21415;48.054;16.646;2022-11-23T07:56:51;11.20;57.90
35299;DHT22;21415;48.054;16.646;2022-11-23T07:59:16;11.20;57.90
35299;DHT22;21415;48.054;16.646;2022-11-23T08:01:42;11.20;57.90
35299;DHT22;21415;48.054;16.646;2022-11-23T08:04:08;11.20;57.80
35299;DHT22;21415;48.054;16.646;2022-11-23T08:06:34;11.20;57.80
35299;DHT22;21415;48.054;16.646;2022-11-23T08:08:59;11.30;57.90
35299;DHT22;21415;48.054;16.646;2022-11-23T08:11:25;11.30;57.80
35299;DHT22;21415;48.054;16.646;2022-11-23T08:13:51;11.30;57.70
35299;DHT22;21415;48.054;16.646;2022-11-23T08:16:17;11.30;57.70
35299;DHT22;21415;48.054;16.646;2022-11-23T08:18:44;11.30;58.30
35299;DHT22;21415;48.054;16.646;2022-11-23T08:21:10;11.20;57.80
35299;DHT22;21415;48.054;16.646;2022-11-23T08:23:36;11.20;57.80
35299;DHT22;21415;48.054;16.646;2022-11-23T08:26:02;11.30;57.80
35299;DHT22;21415;48.054;16.646;2022-11-23T08:28:28;11.30;57.80
35299;DHT22;21415;48.054;16.646;2022-11-23T08:30:54;11.30;57.80
35299;DHT22;21415;48.054;16.646;2022-11-23T08:33:20;11.30;57.80
35299;DHT22;21415;48.054;16.646;2022-11-23T08:35:45;11.30;57.80
35299;DHT22;21415;48.054;16.646;2022-11-23T08:38:11;11.30;57.90
35299;DHT22;21415;48.054;16.646;2022-11-23T08:40:37;11.30;57.90
35299;DHT22;21415;48.054;16.646;2022-11-23T08:43:04;11.30;57.90
35299;DHT22;21415;48.054;16.646;2022-11-23T08:45:30;11.30;57.80
35299;DHT22;21415;48.054;16.646;2022-11-23T08:48:02;11.30;57.80
35299;DHT22;21415;48.054;16.646;2022-11-23T08:50:29;11.30;57.80
35299;DHT22;21415;48.054;16.646;2022-11-23T08:52:57;11.30;57.80
35299;DHT22;21415;48.054;16.646;2022-11-23T08:55:24;11.30;57.70
35299;DHT22;21415;48.054;16.646;2022-11-23T08:57:54;11.30;58.00
35299;DHT22;21415;48.054;16.646;2022-11-23T09:00:20;11.30;57.50
35299;DHT22;21415;48.054;16.646;2022-11-23T09:02:45;11.20;57.50
35299;DHT22;21415;48.054;16.646;2022-11-23T09:05:11;11.20;57.60
35299;DHT22;21415;48.054;16.646;2022-11-23T09:07:37;11.20;57.50
35299;DHT22;21415;48.054;16.646;2022-11-23T09:10:03;11.20;57.40
35299;DHT22;21415;48.054;16.646;2022-11-23T09:12:29;11.20;57.50
35299;DHT22;21415;48.054;16.646;2022-11-23T09:14:55;11.20;57.60
35299;DHT22;21415;48.054;16.646;2022-11-23T09:17:21;11.20;57.50
35299;DHT22;21415;48.054;16.646;2022-11-23T09:19:48;11.20;57.50
35299;DHT22;21415;48.054;16.646;2022-11-23T09:22:14;11.20;57.40
35299;DHT22;21415;48.054;16.646;2022-11-23T09:24:40;11.20;57.60
35299;DHT22;21415;48.054;16.646;2022-11-23T09:27:06;11.10;57.60
35299;DHT22;21415;48.054;16.646;2022-11-23T09:29:32;11.20;57.70
35299;DHT22;21415;48.054;16.646;2022-11-23T09:31:58;11.20;57.80
35299;DHT22;21415;48.054;16.646;2022-11-23T09:34:23;11.20;57.80
35299;DHT22;21415;48.054;16.646;2022-11-23T09:36:49;11.20;57.80
35299;DHT22;21415;48.054;16.646;2022-11-23T09:39:15;11.20;57.80
35299;DHT22;21415;48.054;16.646;2022-11-23T09:47:37;11.20;57.80
35299;DHT22;21415;48.054;16.646;2022-11-23T09:52:33;11.20;57.90
35299;DHT22;21415;48.054;16.646;2022-11-23T09:55:04;11.20;58.00
35299;DHT22;21415;48.054;16.646;2022-11-23T09:57:33;11.30;58.00
35299;DHT22;21415;48.054;16.646;2022-11-23T10:00:05;11.30;58.10
35299;DHT22;21415;48.054;16.646;2022-11-23T10:02:35;11.30;58.20
35299;DHT22;21415;48.054;16.646;2022-11-23T10:05:04;11.30;58.20
35299;DHT22;21415;48.054;16.646;2022-11-23T10:10:36;11.30;58.30
35299;DHT22;21415;48.054;16.646;2022-11-23T10:13:10;11.40;58.40
35299;DHT22;21415;48.054;16.646;2022-11-23T10:24:31;11.50;58.20
35299;DHT22;21415;48.054;16.646;2022-11-23T10:26:57;11.50;58.10
35299;DHT22;21415;48.054;16.646;2022-11-23T10:29:29;11.50;58.00
35299;DHT22;21415;48.054;16.646;2022-11-23T10:31:57;11.50;58.00
35299;DHT22;21415;48.054;16.646;2022-11-23T10:36:55;11.50;57.90
35299;DHT22;21415;48.054;16.646;2022-11-23T10:39:24;11.50;57.90
35299;DHT22;21415;48.054;16.646;2022-11-23T10:41:51;11.60;58.00
35299;DHT22;21415;48.054;16.646;2022-11-23T10:46:43;11.60;57.90
35299;DHT22;21415;48.054;16.646;2022-11-23T10:51:50;11.60;57.60
35299;DHT22;21415;48.054;16.646;2022-11-23T10:56:55;11.70;57.90
35299;DHT22;21415;48.054;16.646;2022-11-23T10:59:35;11.70;57.70
35299;DHT22;21415;48.054;16.646;2022-11-23T11:02:17;11.70;57.70
35299;DHT22;21415;48.054;16.646;2022-11-23T11:04:44;11.70;57.70
35299;DHT22;21415;48.054;16.646;2022-11-23T11:07:16;11.70;57.70
35299;DHT22;21415;48.054;16.646;2022-11-23T11:09:49;11.70;57.90
35299;DHT22;21415;48.054;16.646;2022-11-23T11:12:16;11.70;57.70
35299;DHT22;21415;48.054;16.646;2022-11-23T11:15:14;11.70;57.90
35299;DHT22;21415;48.054;16.646;2022-11-23T11:17:41;11.80;58.20
35299;DHT22;21415;48.054;16.646;2022-11-23T11:22:54;11.90;58.10
35299;DHT22;21415;48.054;16.646;2022-11-23T11:25:30;12.00;58.10
35299;DHT22;21415;48.054;16.646;2022-11-23T11:27:58;12.00;58.10
35299;DHT22;21415;48.054;16.646;2022-11-23T11:30:27;12.00;57.90
35299;DHT22;21415;48.054;16.646;2022-11-23T11:35:33;12.20;57.90
35299;DHT22;21415;48.054;16.646;2022-11-23T11:38:25;12.20;58.20
35299;DHT22;21415;48.054;16.646;2022-11-23T11:40:57;12.20;57.60
35299;DHT22;21415;48.054;16.646;2022-11-23T11:45:59;12.30;57.60
35299;DHT22;21415;48.054;16.646;2022-11-23T11:48:38;12.30;57.60
35299;DHT22;21415;48.054;16.646;2022-11-23T11:51:23;12.40;57.70
35299;DHT22;21415;48.054;16.646;2022-11-23T11:59:42;12.50;57.70
35299;DHT22;21415;48.054;16.646;2022-11-23T12:05:23;12.60;57.50
35299;DHT22;21415;48.054;16.646;2022-11-23T12:08:05;12.60;57.40
35299;DHT22;21415;48.054;16.646;2022-11-23T12:13:22;12.70;57.30
35299;DHT22;21415;48.054;16.646;2022-11-23T12:21:40;12.70;57.20
35299;DHT22;21415;48.054;16.646;2022-11-23T12:27:24;12.70;57.00
35299;DHT22;21415;48.054;16.646;2022-11-23T12:30:22;12.70;57.00
35299;DHT22;21415;48.054;16.646;2022-11-23T12:52:29;12.80;56.70
35299;DHT22;21415;48.054;16.646;2022-11-23T12:55:31;12.80;56.60
35299;DHT22;21415;48.054;16.646;2022-11-23T13:01:20;12.80;56.60
35299;DHT22;21415;48.054;16.646;2022-11-23T13:03:55;12.70;56.40
35299;DHT22;21415;48.054;16.646;2022-11-23T13:18:59;12.70;56.60
35299;DHT22;21415;48.054;16.646;2022-11-23T13:21:36;12.70;56.50
35299;DHT22;21415;48.054;16.646;2022-11-23T13:24:03;12.70;56.50
35299;DHT22;21415;48.054;16.646;2022-11-23T13:26:29;12.70;56.50
35299;DHT22;21415;48.054;16.646;2022-11-23T13:28:58;12.70;56.60
35299;DHT22;21415;48.054;16.646;2022-11-23T13:31:30;12.70;56.50
35299;DHT22;21415;48.054;16.646;2022-11-23T13:34:01;12.70;56.50
35299;DHT22;21415;48.054;16.646;2022-11-23T13:36:35;12.70;56.50
35299;DHT22;21415;48.054;16.646;2022-11-23T13:39:59;12.70;56.40
35299;DHT22;21415;48.054;16.646;2022-11-23T13:42:17;12.70;56.10
35299;DHT22;21415;48.054;16.646;2022-11-23T13:44:43;12.70;56.30
35299;DHT22;21415;48.054;16.646;2022-11-23T13:49:48;12.70;56.30
35299;DHT22;21415;48.054;16.646;2022-11-23T13:57:30;12.70;56.00
35299;DHT22;21415;48.054;16.646;2022-11-23T14:06:09;12.70;56.00
35299;DHT22;21415;48.054;16.646;2022-11-23T14:08:36;12.70;56.10
35299;DHT22;21415;48.054;16.646;2022-11-23T14:11:11;12.70;56.00
35299;DHT22;21415;48.054;16.646;2022-11-23T14:13:39;12.60;55.70
35299;DHT22;21415;48.054;16.646;2022-11-23T14:16:12;12.70;55.80
35299;DHT22;21415;48.054;16.646;2022-11-23T14:19:01;12.70;55.80
35299;DHT22;21415;48.054;16.646;2022-11-23T14:21:38;12.60;55.50
35299;DHT22;21415;48.054;16.646;2022-11-23T14:27:32;12.60;55.30
35299;DHT22;21415;48.054;16.646;2022-11-23T14:41:19;12.50;55.10
35299;DHT22;21415;48.054;16.646;2022-11-23T14:43:47;12.50;55.10
35299;DHT22;21415;48.054;16.646;2022-11-23T14:46:18;12.50;55.30
35299;DHT22;21415;48.054;16.646;2022-11-23T14:48:46;12.50;55.20
35299;DHT22;21415;48.054;16.646;2022-11-23T14:51:22;12.50;55.40
35299;DHT22;21415;48.054;16.646;2022-11-23T14:53:53;12.40;55.20
35299;DHT22;21415;48.054;16.646;2022-11-23T14:56:40;12.40;55.20
35299;DHT22;21415;48.054;16.646;2022-11-23T14:59:23;12.40;55.10
35299;DHT22;21415;48.054;16.646;2022-11-23T15:01:53;12.40;55.10
35299;DHT22;21415;48.054;16.646;2022-11-23T15:04:27;12.40;55.30
35299;DHT22;21415;48.054;16.646;2022-11-23T15:07:14;12.30;55.20
35299;DHT22;21415;48.054;16.646;2022-11-23T15:09:52;12.30;55.20
35299;DHT22;21415;48.054;16.646;2022-11-23T15:12:26;12.30;55.10
35299;DHT22;21415;48.054;16.646;2022-11-23T15:14:54;12.30;55.30
35299;DHT22;21415;48.054;16.646;2022-11-23T15:17:22;12.20;55.40
35299;DHT22;21415;48.054;16.646;2022-11-23T15:19:59;12.20;55.30
35299;DHT22;21415;48.054;16.646;2022-11-23T15:22:26;12.20;55.30
35299;DHT22;21415;48.054;16.646;2022-11-23T15:24:53;12.20;55.40
35299;DHT22;21415;48.054;16.646;2022-11-23T15:27:24;12.20;55.40
35299;DHT22;21415;48.054;16.646;2022-11-23T15:29:58;12.20;55.40
35299;DHT22;21415;48.054;16.646;2022-11-23T15:32:28;12.20;55.40
35299;DHT22;21415;48.054;16.646;2022-11-23T15:34:56;12.20;55.40
35299;DHT22;21415;48.054;16.646;2022-11-23T15:37:23;12.20;55.50
35299;DHT22;21415;48.054;16.646;2022-11-23T15:39:51;12.20;55.50
35299;DHT22;21415;48.054;16.646;2022-11-23T15:42:20;12.20;55.50
35299;DHT22;21415;48.054;16.646;2022-11-23T15:44:47;12.10;55.40
35299;DHT22;21415;48.054;16.646;2022-11-23T15:47:17;12.10;55.40
35299;DHT22;21415;48.054;16.646;2022-11-23T15:49:45;12.10;55.50
35299;DHT22;21415;48.054;16.646;2022-11-23T15:52:17;12.10;55.50
35299;DHT22;21415;48.054;16.646;2022-11-23T15:54:44;12.10;55.50
35299;DHT22;21415;48.054;16.646;2022-11-23T15:57:14;12.10;55.50
35299;DHT22;21415;48.054;16.646;2022-11-23T15:59:45;12.10;55.50
35299;DHT22;21415;48.054;16.646;2022-11-23T16:02:23;12.10;55.40
35299;DHT22;21415;48.054;16.646;2022-11-23T16:05:19;12.10;55.40
35299;DHT22;21415;48.054;16.646;2022-11-23T16:07:58;12.10;55.40
35299;DHT22;21415;48.054;16.646;2022-11-23T16:10:31;12.10;55.50
35299;DHT22;21415;48.054;16.646;2022-11-23T16:12:59;12.00;56.00
35299;DHT22;21415;48.054;16.646;2022-11-23T16:18:23;12.10;55.70
35299;DHT22;21415;48.054;16.646;2022-11-23T16:21:03;12.00;55.70
35299;DHT22;21415;48.054;16.646;2022-11-23T16:23:41;12.00;55.70
35299;DHT22;21415;48.054;16.646;2022-11-23T16:26:11;12.10;55.80
35299;DHT22;21415;48.054;16.646;2022-11-23T16:28:46;12.00;55.80
35299;DHT22;21415;48.054;16.646;2022-11-23T16:31:39;12.00;55.80
35299;DHT22;21415;48.054;16.646;2022-11-23T16:34:12;12.00;55.80
35299;DHT22;21415;48.054;16.646;2022-11-23T16:36:39;12.00;55.80
35299;DHT22;21415;48.054;16.646;2022-11-23T16:39:04;12.00;55.80
35299;DHT22;21415;48.054;16.646;2022-11-23T16:41:30;12.00;55.80
35299;DHT22;21415;48.054;16.646;2022-11-23T16:43:56;12.10;55.80
35299;DHT22;21415;48.054;16.646;2022-11-23T16:46:22;12.00;55.80
35299;DHT22;21415;48.054;16.646;2022-11-23T16:48:47;12.00;55.80
35299;DHT22;21415;48.054;16.646;2022-11-23T16:51:13;12.00;55.90
35299;DHT22;21415;48.054;16.646;2022-11-23T16:53:43;12.10;55.90
35299;DHT22;21415;48.054;16.646;2022-11-23T16:56:16;12.10;55.90
35299;DHT22;21415;48.054;16.646;2022-11-23T16:58:43;12.10;56.30
35299;DHT22;21415;48.054;16.646;2022-11-23T17:01:17;12.10;55.80
35299;DHT22;21415;48.054;16.646;2022-11-23T17:03:44;12.10;55.90
35299;DHT22;21415;48.054;16.646;2022-11-23T17:06:12;12.10;55.90
35299;DHT22;21415;48.054;16.646;2022-11-23T17:08:40;12.10;55.80
35299;DHT22;21415;48.054;16.646;2022-11-23T17:11:14;12.10;55.90
35299;DHT22;21415;48.054;16.646;2022-11-23T17:13:41;12.10;55.80
35299;DHT22;21415;48.054;16.646;2022-11-23T17:16:13;12.10;55.80
35299;DHT22;21415;48.054;16.646;2022-11-23T17:18:39;12.10;55.70
35299;DHT22;21415;48.054;16.646;2022-11-23T17:21:05;12.10;55.70
35299;DHT22;21415;48.054;16.646;2022-11-23T17:23:31;12.10;55.80
35299;DHT22;21415;48.054;16.646;2022-11-23T17:25:57;12.10;55.70
35299;DHT22;21415;48.054;16.646;2022-11-23T17:28:23;12.10;55.70
35299;DHT22;21415;48.054;16.646;2022-11-23T17:30:49;12.20;55.70
35299;DHT22;21415;48.054;16.646;2022-11-23T17:33:15;12.10;55.70
35299;DHT22;21415;48.054;16.646;2022-11-23T17:35:41;12.20;55.80
35299;DHT22;21415;48.054;16.646;2022-11-23T17:38:13;12.20;55.60
35299;DHT22;21415;48.054;16.646;2022-11-23T17:40:39;12.20;55.70